Aviation Digital Data Service (ADDS)

Output produced by METARs form (2359 UTC 23 October 2019)
found at http://www.aviationweather.gov/metar/data/
 
METAR text: ZYTX 232330Z 09002MPS 050V170 2000 BR NSC 10/09 Q1022 NOSIG
Conditions at: ZYTX (SHENYANG/TAOKIAN, CN) observed 2330 UTC 23 October 2019
Temperature: 10.0°C (50°F)
Dewpoint: 9.0°C (48°F) [RH = 93%]
Pressure (altimeter): 30.18 inches Hg (1022.0 mb)
Winds: from the E (90 degrees) at 5 MPH (4 knots; 2.1 m/s)
Visibility: 1.24 miles (2.00 km)
Ceiling: at least 12,000 feet AGL
Clouds: sky clear below 12,000 feet AGL
Weather: BR  (mist)

METAR text: ZYTX 232300Z VRB01MPS 2000 BR NSC 07/06 Q1022 BECMG TL0030 3000
Conditions at: ZYTX (SHENYANG/TAOKIAN, CN) observed 2300 UTC 23 October 2019
Temperature: 7.0°C (45°F)
Dewpoint: 6.0°C (43°F) [RH = 93%]
Pressure (altimeter): 30.18 inches Hg (1022.0 mb)
Winds: variable direction winds at 2 MPH (2 knots; 1.0 m/s)
Visibility: 1.24 miles (2.00 km)
Ceiling: at least 12,000 feet AGL
Clouds: sky clear below 12,000 feet AGL
Weather: BR  (mist)

METAR text: ZYTX 232230Z VRB01MPS 2000 R24/1400N BR NSC 05/04 Q1021 NOSIG
Conditions at: ZYTX (SHENYANG/TAOKIAN, CN) observed 2230 UTC 23 October 2019
Temperature: 5.0°C (41°F)
Dewpoint: 4.0°C (39°F) [RH = 93%]
Pressure (altimeter): 30.15 inches Hg (1021.0 mb)
Winds: variable direction winds at 2 MPH (2 knots; 1.0 m/s)
Visibility: 1.24 miles (2.00 km)
Ceiling: at least 12,000 feet AGL
Clouds: sky clear below 12,000 feet AGL
Weather: BR  (mist)

METAR text: ZYTX 232200Z 07002MPS 2000 BR NSC 06/05 Q1021 BECMG TL2330 3000
Conditions at: ZYTX (SHENYANG/TAOKIAN, CN) observed 2200 UTC 23 October 2019
Temperature: 6.0°C (43°F)
Dewpoint: 5.0°C (41°F) [RH = 93%]
Pressure (altimeter): 30.15 inches Hg (1021.0 mb)
Winds: from the ENE (70 degrees) at 5 MPH (4 knots; 2.1 m/s)
Visibility: 1.24 miles (2.00 km)
Ceiling: at least 12,000 feet AGL
Clouds: sky clear below 12,000 feet AGL
Weather: BR  (mist)

METAR text: ZYTX 232130Z VRB01MPS 2500 BR NSC 06/05 Q1021 NOSIG
Conditions at: ZYTX (SHENYANG/TAOKIAN, CN) observed 2130 UTC 23 October 2019
Temperature: 6.0°C (43°F)
Dewpoint: 5.0°C (41°F) [RH = 93%]
Pressure (altimeter): 30.15 inches Hg (1021.0 mb)
Winds: variable direction winds at 2 MPH (2 knots; 1.0 m/s)
Visibility: 1.55 miles (2.49 km)
Ceiling: at least 12,000 feet AGL
Clouds: sky clear below 12,000 feet AGL
Weather: BR  (mist)

METAR text: ZYTX 232100Z VRB01MPS 3000 BR NSC 05/04 Q1021 BECMG TL2130 2500
Conditions at: ZYTX (SHENYANG/TAOKIAN, CN) observed 2100 UTC 23 October 2019
Temperature: 5.0°C (41°F)
Dewpoint: 4.0°C (39°F) [RH = 93%]
Pressure (altimeter): 30.15 inches Hg (1021.0 mb)
Winds: variable direction winds at 2 MPH (2 knots; 1.0 m/s)
Visibility: 1.86 miles (2.99 km)
Ceiling: at least 12,000 feet AGL
Clouds: sky clear below 12,000 feet AGL
Weather: BR  (mist)

METAR text: ZYTX 232030Z VRB01MPS 3000 BR NSC 07/05 Q1020 NOSIG
Conditions at: ZYTX (SHENYANG/TAOKIAN, CN) observed 2030 UTC 23 October 2019
Temperature: 7.0°C (45°F)
Dewpoint: 5.0°C (41°F) [RH = 87%]
Pressure (altimeter): 30.12 inches Hg (1020.0 mb)
Winds: variable direction winds at 2 MPH (2 knots; 1.0 m/s)
Visibility: 1.86 miles (2.99 km)
Ceiling: at least 12,000 feet AGL
Clouds: sky clear below 12,000 feet AGL
Weather: BR  (mist)

METAR text: ZYTX 232000Z 10002MPS 060V140 3000 BR NSC 08/06 Q1021 BECMG TL2130 2000
Conditions at: ZYTX (SHENYANG/TAOKIAN, CN) observed 2000 UTC 23 October 2019
Temperature: 8.0°C (46°F)
Dewpoint: 6.0°C (43°F) [RH = 87%]
Pressure (altimeter): 30.15 inches Hg (1021.0 mb)
Winds: from the E (100 degrees) at 5 MPH (4 knots; 2.1 m/s)
Visibility: 1.86 miles (2.99 km)
Ceiling: at least 12,000 feet AGL
Clouds: sky clear below 12,000 feet AGL
Weather: BR  (mist)

METAR text: ZYTX 231930Z 10001MPS 2500 BR NSC 07/06 Q1021 NOSIG
Conditions at: ZYTX (SHENYANG/TAOKIAN, CN) observed 1930 UTC 23 October 2019
Temperature: 7.0°C (45°F)
Dewpoint: 6.0°C (43°F) [RH = 93%]
Pressure (altimeter): 30.15 inches Hg (1021.0 mb)
Winds: from the E (100 degrees) at 2 MPH (2 knots; 1.0 m/s)
Visibility: 1.55 miles (2.49 km)
Ceiling: at least 12,000 feet AGL
Clouds: sky clear below 12,000 feet AGL
Weather: BR  (mist)

METAR text: ZYTX 231900Z 06002MPS 3000 BR NSC 07/06 Q1021 BECMG TL2030 2000
Conditions at: ZYTX (SHENYANG/TAOKIAN, CN) observed 1900 UTC 23 October 2019
Temperature: 7.0°C (45°F)
Dewpoint: 6.0°C (43°F) [RH = 93%]
Pressure (altimeter): 30.15 inches Hg (1021.0 mb)
Winds: from the ENE (60 degrees) at 5 MPH (4 knots; 2.1 m/s)
Visibility: 1.86 miles (2.99 km)
Ceiling: at least 12,000 feet AGL
Clouds: sky clear below 12,000 feet AGL
Weather: BR  (mist)

METAR text: ZYTX 231830Z 06002MPS 3000 BR NSC 07/06 Q1021 NOSIG
Conditions at: ZYTX (SHENYANG/TAOKIAN, CN) observed 1830 UTC 23 October 2019
Temperature: 7.0°C (45°F)
Dewpoint: 6.0°C (43°F) [RH = 93%]
Pressure (altimeter): 30.15 inches Hg (1021.0 mb)
Winds: from the ENE (60 degrees) at 5 MPH (4 knots; 2.1 m/s)
Visibility: 1.86 miles (2.99 km)
Ceiling: at least 12,000 feet AGL
Clouds: sky clear below 12,000 feet AGL
Weather: BR  (mist)

METAR text: ZYTX 231800Z VRB01MPS 3000 BR NSC 07/05 Q1021 BECMG TL1930 2500
Conditions at: ZYTX (SHENYANG/TAOKIAN, CN) observed 1800 UTC 23 October 2019
Temperature: 7.0°C (45°F)
Dewpoint: 5.0°C (41°F) [RH = 87%]
Pressure (altimeter): 30.15 inches Hg (1021.0 mb)
Winds: variable direction winds at 2 MPH (2 knots; 1.0 m/s)
Visibility: 1.86 miles (2.99 km)
Ceiling: at least 12,000 feet AGL
Clouds: sky clear below 12,000 feet AGL
Weather: BR  (mist)

METAR text: ZYTX 231730Z VRB01MPS 4000 FU NSC 06/03 Q1021 NOSIG
Conditions at: ZYTX (SHENYANG/TAOKIAN, CN) observed 1730 UTC 23 October 2019
Temperature: 6.0°C (43°F)
Dewpoint: 3.0°C (37°F) [RH = 81%]
Pressure (altimeter): 30.15 inches Hg (1021.0 mb)
Winds: variable direction winds at 2 MPH (2 knots; 1.0 m/s)
Visibility: 2.49 miles (4.01 km)
Ceiling: at least 12,000 feet AGL
Clouds: sky clear below 12,000 feet AGL
Weather: FU  (smoke)

METAR text: ZYTX 231700Z 13001MPS 4000 FU NSC 08/07 Q1021 NOSIG
Conditions at: ZYTX (SHENYANG/TAOKIAN, CN) observed 1700 UTC 23 October 2019
Temperature: 8.0°C (46°F)
Dewpoint: 7.0°C (45°F) [RH = 93%]
Pressure (altimeter): 30.15 inches Hg (1021.0 mb)
Winds: from the SE (130 degrees) at 2 MPH (2 knots; 1.0 m/s)
Visibility: 2.49 miles (4.01 km)
Ceiling: at least 12,000 feet AGL
Clouds: sky clear below 12,000 feet AGL
Weather: FU  (smoke)

METAR text: ZYTX 231630Z VRB01MPS 4000 FU NSC 06/05 Q1021 NOSIG
Conditions at: ZYTX (SHENYANG/TAOKIAN, CN) observed 1630 UTC 23 October 2019
Temperature: 6.0°C (43°F)
Dewpoint: 5.0°C (41°F) [RH = 93%]
Pressure (altimeter): 30.15 inches Hg (1021.0 mb)
Winds: variable direction winds at 2 MPH (2 knots; 1.0 m/s)
Visibility: 2.49 miles (4.01 km)
Ceiling: at least 12,000 feet AGL
Clouds: sky clear below 12,000 feet AGL
Weather: FU  (smoke)

METAR text: ZYTX 231600Z VRB01MPS 4000 FU NSC 07/05 Q1021 NOSIG
Conditions at: ZYTX (SHENYANG/TAOKIAN, CN) observed 1600 UTC 23 October 2019
Temperature: 7.0°C (45°F)
Dewpoint: 5.0°C (41°F) [RH = 87%]
Pressure (altimeter): 30.15 inches Hg (1021.0 mb)
Winds: variable direction winds at 2 MPH (2 knots; 1.0 m/s)
Visibility: 2.49 miles (4.01 km)
Ceiling: at least 12,000 feet AGL
Clouds: sky clear below 12,000 feet AGL
Weather: FU  (smoke)

METAR text: ZYTX 231530Z 13001MPS 6000 NSC 09/07 Q1021 NOSIG
Conditions at: ZYTX (SHENYANG/TAOKIAN, CN) observed 1530 UTC 23 October 2019
Temperature: 9.0°C (48°F)
Dewpoint: 7.0°C (45°F) [RH = 87%]
Pressure (altimeter): 30.15 inches Hg (1021.0 mb)
Winds: from the SE (130 degrees) at 2 MPH (2 knots; 1.0 m/s)
Visibility: 4 miles ( 6 km)
Ceiling: at least 12,000 feet AGL
Clouds: sky clear below 12,000 feet AGL
Weather: no significant weather observed at this time

METAR text: ZYTX 231500Z 14002MPS 120V230 6000 NSC 10/07 Q1021 NOSIG
Conditions at: ZYTX (SHENYANG/TAOKIAN, CN) observed 1500 UTC 23 October 2019
Temperature: 10.0°C (50°F)
Dewpoint: 7.0°C (45°F) [RH = 82%]
Pressure (altimeter): 30.15 inches Hg (1021.0 mb)
Winds: from the SE (140 degrees) at 5 MPH (4 knots; 2.1 m/s)
Visibility: 4 miles ( 6 km)
Ceiling: at least 12,000 feet AGL
Clouds: sky clear below 12,000 feet AGL
Weather: no significant weather observed at this time

METAR text: ZYTX 231430Z 20001MPS 6000 NSC 09/07 Q1021 NOSIG
Conditions at: ZYTX (SHENYANG/TAOKIAN, CN) observed 1430 UTC 23 October 2019
Temperature: 9.0°C (48°F)
Dewpoint: 7.0°C (45°F) [RH = 87%]
Pressure (altimeter): 30.15 inches Hg (1021.0 mb)
Winds: from the SSW (200 degrees) at 2 MPH (2 knots; 1.0 m/s)
Visibility: 4 miles ( 6 km)
Ceiling: at least 12,000 feet AGL
Clouds: sky clear below 12,000 feet AGL
Weather: no significant weather observed at this time

METAR text: ZYTX 231400Z VRB01MPS 6000 NSC 08/06 Q1021 NOSIG
Conditions at: ZYTX (SHENYANG/TAOKIAN, CN) observed 1400 UTC 23 October 2019
Temperature: 8.0°C (46°F)
Dewpoint: 6.0°C (43°F) [RH = 87%]
Pressure (altimeter): 30.15 inches Hg (1021.0 mb)
Winds: variable direction winds at 2 MPH (2 knots; 1.0 m/s)
Visibility: 4 miles ( 6 km)
Ceiling: at least 12,000 feet AGL
Clouds: sky clear below 12,000 feet AGL
Weather: no significant weather observed at this time

METAR text: ZYTX 231330Z 13002MPS 6000 NSC 09/06 Q1020 NOSIG
Conditions at: ZYTX (SHENYANG/TAOKIAN, CN) observed 1330 UTC 23 October 2019
Temperature: 9.0°C (48°F)
Dewpoint: 6.0°C (43°F) [RH = 81%]
Pressure (altimeter): 30.12 inches Hg (1020.0 mb)
Winds: from the SE (130 degrees) at 5 MPH (4 knots; 2.1 m/s)
Visibility: 4 miles ( 6 km)
Ceiling: at least 12,000 feet AGL
Clouds: sky clear below 12,000 feet AGL
Weather: no significant weather observed at this time

METAR text: ZYTX 231300Z 15001MPS 6000 NSC 09/05 Q1020 NOSIG
Conditions at: ZYTX (SHENYANG/TAOKIAN, CN) observed 1300 UTC 23 October 2019
Temperature: 9.0°C (48°F)
Dewpoint: 5.0°C (41°F) [RH = 76%]
Pressure (altimeter): 30.12 inches Hg (1020.0 mb)
Winds: from the SSE (150 degrees) at 2 MPH (2 knots; 1.0 m/s)
Visibility: 4 miles ( 6 km)
Ceiling: at least 12,000 feet AGL
Clouds: sky clear below 12,000 feet AGL
Weather: no significant weather observed at this time

METAR text: ZYTX 231230Z VRB01MPS 6000 NSC 10/07 Q1020 NOSIG
Conditions at: ZYTX (SHENYANG/TAOKIAN, CN) observed 1230 UTC 23 October 2019
Temperature: 10.0°C (50°F)
Dewpoint: 7.0°C (45°F) [RH = 82%]
Pressure (altimeter): 30.12 inches Hg (1020.0 mb)
Winds: variable direction winds at 2 MPH (2 knots; 1.0 m/s)
Visibility: 4 miles ( 6 km)
Ceiling: at least 12,000 feet AGL
Clouds: sky clear below 12,000 feet AGL
Weather: no significant weather observed at this time

METAR text: ZYTX 231200Z VRB01MPS 6000 NSC 11/07 Q1020 NOSIG
Conditions at: ZYTX (SHENYANG/TAOKIAN, CN) observed 1200 UTC 23 October 2019
Temperature: 11.0°C (52°F)
Dewpoint: 7.0°C (45°F) [RH = 76%]
Pressure (altimeter): 30.12 inches Hg (1020.0 mb)
Winds: variable direction winds at 2 MPH (2 knots; 1.0 m/s)
Visibility: 4 miles ( 6 km)
Ceiling: at least 12,000 feet AGL
Clouds: sky clear below 12,000 feet AGL
Weather: no significant weather observed at this time

METAR text: ZYTX 231130Z 14002MPS 020V180 6000 NSC 13/07 Q1019 NOSIG
Conditions at: ZYTX (SHENYANG/TAOKIAN, CN) observed 1130 UTC 23 October 2019
Temperature: 13.0°C (55°F)
Dewpoint: 7.0°C (45°F) [RH = 67%]
Pressure (altimeter): 30.09 inches Hg (1019.0 mb)
Winds: from the SE (140 degrees) at 5 MPH (4 knots; 2.1 m/s)
Visibility: 4 miles ( 6 km)
Ceiling: at least 12,000 feet AGL
Clouds: sky clear below 12,000 feet AGL
Weather: no significant weather observed at this time

METAR text: ZYTX 231100Z VRB01MPS 6000 NSC 13/06 Q1019 NOSIG
Conditions at: ZYTX (SHENYANG/TAOKIAN, CN) observed 1100 UTC 23 October 2019
Temperature: 13.0°C (55°F)
Dewpoint: 6.0°C (43°F) [RH = 62%]
Pressure (altimeter): 30.09 inches Hg (1019.0 mb)
Winds: variable direction winds at 2 MPH (2 knots; 1.0 m/s)
Visibility: 4 miles ( 6 km)
Ceiling: at least 12,000 feet AGL
Clouds: sky clear below 12,000 feet AGL
Weather: no significant weather observed at this time

METAR text: ZYTX 231030Z VRB01MPS 6000 NSC 15/07 Q1019 NOSIG
Conditions at: ZYTX (SHENYANG/TAOKIAN, CN) observed 1030 UTC 23 October 2019
Temperature: 15.0°C (59°F)
Dewpoint: 7.0°C (45°F) [RH = 59%]
Pressure (altimeter): 30.09 inches Hg (1019.0 mb)
Winds: variable direction winds at 2 MPH (2 knots; 1.0 m/s)
Visibility: 4 miles ( 6 km)
Ceiling: at least 12,000 feet AGL
Clouds: sky clear below 12,000 feet AGL
Weather: no significant weather observed at this time

METAR text: ZYTX 231000Z VRB01MPS 8000 NSC 14/06 Q1018 NOSIG
Conditions at: ZYTX (SHENYANG/TAOKIAN, CN) observed 1000 UTC 23 October 2019
Temperature: 14.0°C (57°F)
Dewpoint: 6.0°C (43°F) [RH = 58%]
Pressure (altimeter): 30.06 inches Hg (1018.0 mb)
Winds: variable direction winds at 2 MPH (2 knots; 1.0 m/s)
Visibility: 5 miles ( 8 km)
Ceiling: at least 12,000 feet AGL
Clouds: sky clear below 12,000 feet AGL
Weather: no significant weather observed at this time

METAR text: ZYTX 230930Z 22001MPS 8000 NSC 14/06 Q1018 NOSIG
Conditions at: ZYTX (SHENYANG/TAOKIAN, CN) observed 0930 UTC 23 October 2019
Temperature: 14.0°C (57°F)
Dewpoint: 6.0°C (43°F) [RH = 58%]
Pressure (altimeter): 30.06 inches Hg (1018.0 mb)
Winds: from the SW (220 degrees) at 2 MPH (2 knots; 1.0 m/s)
Visibility: 5 miles ( 8 km)
Ceiling: at least 12,000 feet AGL
Clouds: sky clear below 12,000 feet AGL
Weather: no significant weather observed at this time

METAR text: ZYTX 230900Z 00000MPS 8000 NSC 18/07 Q1018 NOSIG
Conditions at: ZYTX (SHENYANG/TAOKIAN, CN) observed 0900 UTC 23 October 2019
Temperature: 18.0°C (64°F)
Dewpoint: 7.0°C (45°F) [RH = 49%]
Pressure (altimeter): 30.06 inches Hg (1018.0 mb)
Winds: calm
Visibility: 5 miles ( 8 km)
Ceiling: at least 12,000 feet AGL
Clouds: sky clear below 12,000 feet AGL
Weather: no significant weather observed at this time

METAR text: ZYTX 230830Z 29001MPS 8000 NSC 18/06 Q1018 NOSIG
Conditions at: ZYTX (SHENYANG/TAOKIAN, CN) observed 0830 UTC 23 October 2019
Temperature: 18.0°C (64°F)
Dewpoint: 6.0°C (43°F) [RH = 45%]
Pressure (altimeter): 30.06 inches Hg (1018.0 mb)
Winds: from the WNW (290 degrees) at 2 MPH (2 knots; 1.0 m/s)
Visibility: 5 miles ( 8 km)
Ceiling: at least 12,000 feet AGL
Clouds: sky clear below 12,000 feet AGL
Weather: no significant weather observed at this time

METAR text: ZYTX 230800Z 27003MPS 8000 NSC 20/07 Q1018 NOSIG
Conditions at: ZYTX (SHENYANG/TAOKIAN, CN) observed 0800 UTC 23 October 2019
Temperature: 20.0°C (68°F)
Dewpoint: 7.0°C (45°F) [RH = 43%]
Pressure (altimeter): 30.06 inches Hg (1018.0 mb)
Winds: from the W (270 degrees) at 7 MPH (6 knots; 3.1 m/s)
Visibility: 5 miles ( 8 km)
Ceiling: at least 12,000 feet AGL
Clouds: sky clear below 12,000 feet AGL
Weather: no significant weather observed at this time

METAR text: ZYTX 230730Z 28003MPS 6000 NSC 20/07 Q1018 NOSIG
Conditions at: ZYTX (SHENYANG/TAOKIAN, CN) observed 0730 UTC 23 October 2019
Temperature: 20.0°C (68°F)
Dewpoint: 7.0°C (45°F) [RH = 43%]
Pressure (altimeter): 30.06 inches Hg (1018.0 mb)
Winds: from the W (280 degrees) at 7 MPH (6 knots; 3.1 m/s)
Visibility: 4 miles ( 6 km)
Ceiling: at least 12,000 feet AGL
Clouds: sky clear below 12,000 feet AGL
Weather: no significant weather observed at this time

METAR text: ZYTX 230700Z 26003MPS 230V290 6000 NSC 21/08 Q1018 NOSIG
Conditions at: ZYTX (SHENYANG/TAOKIAN, CN) observed 0700 UTC 23 October 2019
Temperature: 21.0°C (70°F)
Dewpoint: 8.0°C (46°F) [RH = 43%]
Pressure (altimeter): 30.06 inches Hg (1018.0 mb)
Winds: from the W (260 degrees) at 7 MPH (6 knots; 3.1 m/s)
Visibility: 4 miles ( 6 km)
Ceiling: at least 12,000 feet AGL
Clouds: sky clear below 12,000 feet AGL
Weather: no significant weather observed at this time

METAR text: ZYTX 230630Z 26003MPS 8000 NSC 21/08 Q1018 NOSIG
Conditions at: ZYTX (SHENYANG/TAOKIAN, CN) observed 0630 UTC 23 October 2019
Temperature: 21.0°C (70°F)
Dewpoint: 8.0°C (46°F) [RH = 43%]
Pressure (altimeter): 30.06 inches Hg (1018.0 mb)
Winds: from the W (260 degrees) at 7 MPH (6 knots; 3.1 m/s)
Visibility: 5 miles ( 8 km)
Ceiling: at least 12,000 feet AGL
Clouds: sky clear below 12,000 feet AGL
Weather: no significant weather observed at this time

METAR text: ZYTX 230600Z 25003MPS 200V280 8000 NSC 21/09 Q1018 NOSIG
Conditions at: ZYTX (SHENYANG/TAOKIAN, CN) observed 0600 UTC 23 October 2019
Temperature: 21.0°C (70°F)
Dewpoint: 9.0°C (48°F) [RH = 46%]
Pressure (altimeter): 30.06 inches Hg (1018.0 mb)
Winds: from the WSW (250 degrees) at 7 MPH (6 knots; 3.1 m/s)
Visibility: 5 miles ( 8 km)
Ceiling: at least 12,000 feet AGL
Clouds: sky clear below 12,000 feet AGL
Weather: no significant weather observed at this time

METAR text: ZYTX 230530Z 24003MPS 170V290 8000 NSC 21/09 Q1018 NOSIG
Conditions at: ZYTX (SHENYANG/TAOKIAN, CN) observed 0530 UTC 23 October 2019
Temperature: 21.0°C (70°F)
Dewpoint: 9.0°C (48°F) [RH = 46%]
Pressure (altimeter): 30.06 inches Hg (1018.0 mb)
Winds: from the WSW (240 degrees) at 7 MPH (6 knots; 3.1 m/s)
Visibility: 5 miles ( 8 km)
Ceiling: at least 12,000 feet AGL
Clouds: sky clear below 12,000 feet AGL
Weather: no significant weather observed at this time

METAR text: ZYTX 230500Z 21002MPS 140V280 8000 NSC 21/09 Q1018 NOSIG
Conditions at: ZYTX (SHENYANG/TAOKIAN, CN) observed 0500 UTC 23 October 2019
Temperature: 21.0°C (70°F)
Dewpoint: 9.0°C (48°F) [RH = 46%]
Pressure (altimeter): 30.06 inches Hg (1018.0 mb)
Winds: from the SSW (210 degrees) at 5 MPH (4 knots; 2.1 m/s)
Visibility: 5 miles ( 8 km)
Ceiling: at least 12,000 feet AGL
Clouds: sky clear below 12,000 feet AGL
Weather: no significant weather observed at this time

METAR text: ZYTX 230430Z VRB02MPS 8000 NSC 20/09 Q1018 NOSIG
Conditions at: ZYTX (SHENYANG/TAOKIAN, CN) observed 0430 UTC 23 October 2019
Temperature: 20.0°C (68°F)
Dewpoint: 9.0°C (48°F) [RH = 49%]
Pressure (altimeter): 30.06 inches Hg (1018.0 mb)
Winds: variable direction winds at 5 MPH (4 knots; 2.1 m/s)
Visibility: 5 miles ( 8 km)
Ceiling: at least 12,000 feet AGL
Clouds: sky clear below 12,000 feet AGL
Weather: no significant weather observed at this time

METAR text: ZYTX 230400Z 23003MPS 200V280 8000 NSC 20/09 Q1019 NOSIG
Conditions at: ZYTX (SHENYANG/TAOKIAN, CN) observed 0400 UTC 23 October 2019
Temperature: 20.0°C (68°F)
Dewpoint: 9.0°C (48°F) [RH = 49%]
Pressure (altimeter): 30.09 inches Hg (1019.0 mb)
Winds: from the SW (230 degrees) at 7 MPH (6 knots; 3.1 m/s)
Visibility: 5 miles ( 8 km)
Ceiling: at least 12,000 feet AGL
Clouds: sky clear below 12,000 feet AGL
Weather: no significant weather observed at this time

METAR text: ZYTX 230330Z 24003MPS 190V280 8000 NSC 20/09 Q1019 NOSIG
Conditions at: ZYTX (SHENYANG/TAOKIAN, CN) observed 0330 UTC 23 October 2019
Temperature: 20.0°C (68°F)
Dewpoint: 9.0°C (48°F) [RH = 49%]
Pressure (altimeter): 30.09 inches Hg (1019.0 mb)
Winds: from the WSW (240 degrees) at 7 MPH (6 knots; 3.1 m/s)
Visibility: 5 miles ( 8 km)
Ceiling: at least 12,000 feet AGL
Clouds: sky clear below 12,000 feet AGL
Weather: no significant weather observed at this time

METAR text: ZYTX 230300Z 19002MPS 130V230 CAVOK 19/09 Q1019 NOSIG
Conditions at: ZYTX (SHENYANG/TAOKIAN, CN) observed 0300 UTC 23 October 2019
Temperature: 19.0°C (66°F)
Dewpoint: 9.0°C (48°F) [RH = 52%]
Pressure (altimeter): 30.09 inches Hg (1019.0 mb)
Winds: from the S (190 degrees) at 5 MPH (4 knots; 2.1 m/s)
Visibility: 6 or more miles (10+ km)
Ceiling: ceiling and visibility are OK
Clouds: unknown
Weather: no significant weather observed at this time

METAR text: ZYTX 230230Z VRB02MPS CAVOK 18/10 Q1020 NOSIG
Conditions at: ZYTX (SHENYANG/TAOKIAN, CN) observed 0230 UTC 23 October 2019
Temperature: 18.0°C (64°F)
Dewpoint: 10.0°C (50°F) [RH = 59%]
Pressure (altimeter): 30.12 inches Hg (1020.0 mb)
Winds: variable direction winds at 5 MPH (4 knots; 2.1 m/s)
Visibility: 6 or more miles (10+ km)
Ceiling: ceiling and visibility are OK
Clouds: unknown
Weather: no significant weather observed at this time

METAR text: ZYTX 230200Z VRB01MPS 6000 NSC 17/10 Q1020 NOSIG
Conditions at: ZYTX (SHENYANG/TAOKIAN, CN) observed 0200 UTC 23 October 2019
Temperature: 17.0°C (63°F)
Dewpoint: 10.0°C (50°F) [RH = 63%]
Pressure (altimeter): 30.12 inches Hg (1020.0 mb)
Winds: variable direction winds at 2 MPH (2 knots; 1.0 m/s)
Visibility: 4 miles ( 6 km)
Ceiling: at least 12,000 feet AGL
Clouds: sky clear below 12,000 feet AGL
Weather: no significant weather observed at this time

METAR text: ZYTX 230130Z 11002MPS 060V150 6000 NSC 15/10 Q1020 NOSIG
Conditions at: ZYTX (SHENYANG/TAOKIAN, CN) observed 0130 UTC 23 October 2019
Temperature: 15.0°C (59°F)
Dewpoint: 10.0°C (50°F) [RH = 72%]
Pressure (altimeter): 30.12 inches Hg (1020.0 mb)
Winds: from the ESE (110 degrees) at 5 MPH (4 knots; 2.1 m/s)
Visibility: 4 miles ( 6 km)
Ceiling: at least 12,000 feet AGL
Clouds: sky clear below 12,000 feet AGL
Weather: no significant weather observed at this time

METAR text: ZYTX 230100Z 05002MPS 030V090 3000 BR NSC 13/08 Q1020 NOSIG
Conditions at: ZYTX (SHENYANG/TAOKIAN, CN) observed 0100 UTC 23 October 2019
Temperature: 13.0°C (55°F)
Dewpoint: 8.0°C (46°F) [RH = 72%]
Pressure (altimeter): 30.12 inches Hg (1020.0 mb)
Winds: from the NE (50 degrees) at 5 MPH (4 knots; 2.1 m/s)
Visibility: 1.86 miles (2.99 km)
Ceiling: at least 12,000 feet AGL
Clouds: sky clear below 12,000 feet AGL
Weather: BR  (mist)

METAR text: ZYTX 230030Z 06003MPS 040V100 2000 BR NSC 11/08 Q1020 NOSIG
Conditions at: ZYTX (SHENYANG/TAOKIAN, CN) observed 0030 UTC 23 October 2019
Temperature: 11.0°C (52°F)
Dewpoint: 8.0°C (46°F) [RH = 82%]
Pressure (altimeter): 30.12 inches Hg (1020.0 mb)
Winds: from the ENE (60 degrees) at 7 MPH (6 knots; 3.1 m/s)
Visibility: 1.24 miles (2.00 km)
Ceiling: at least 12,000 feet AGL
Clouds: sky clear below 12,000 feet AGL
Weather: BR  (mist)

METAR text: ZYTX 230000Z 05003MPS 2000 BR NSC 10/08 Q1020 BECMG TL0130 3000
Conditions at: ZYTX (SHENYANG/TAOKIAN, CN) observed 0000 UTC 23 October 2019
Temperature: 10.0°C (50°F)
Dewpoint: 8.0°C (46°F) [RH = 87%]
Pressure (altimeter): 30.12 inches Hg (1020.0 mb)
Winds: from the NE (50 degrees) at 7 MPH (6 knots; 3.1 m/s)
Visibility: 1.24 miles (2.00 km)
Ceiling: at least 12,000 feet AGL
Clouds: sky clear below 12,000 feet AGL
Weather: BR  (mist)

METAR text: ZYTX 222330Z 05003MPS 2000 BR NSC 08/07 Q1019 NOSIG
Conditions at: ZYTX (SHENYANG/TAOKIAN, CN) observed 2330 UTC 22 October 2019
Temperature: 8.0°C (46°F)
Dewpoint: 7.0°C (45°F) [RH = 93%]
Pressure (altimeter): 30.09 inches Hg (1019.0 mb)
Winds: from the NE (50 degrees) at 7 MPH (6 knots; 3.1 m/s)
Visibility: 1.24 miles (2.00 km)
Ceiling: at least 12,000 feet AGL
Clouds: sky clear below 12,000 feet AGL
Weather: BR  (mist)

METAR text: ZYTX 222300Z 05004MPS 1600 R06/1400N BR NSC 07/06 Q1019 BECMG TL0030 3000
Conditions at: ZYTX (SHENYANG/TAOKIAN, CN) observed 2300 UTC 22 October 2019
Temperature: 7.0°C (45°F)
Dewpoint: 6.0°C (43°F) [RH = 93%]
Pressure (altimeter): 30.09 inches Hg (1019.0 mb)
Winds: from the NE (50 degrees) at 9 MPH (8 knots; 4.1 m/s)
Visibility: 0.99 miles (1.59 km)
Ceiling: at least 12,000 feet AGL
Clouds: sky clear below 12,000 feet AGL
Weather: BR  (mist)

METAR text: ZYTX 222230Z 03002MPS 320V070 1600 R24/1300D BR NSC 06/05 Q1019 NOSIG
Conditions at: ZYTX (SHENYANG/TAOKIAN, CN) observed 2230 UTC 22 October 2019
Temperature: 6.0°C (43°F)
Dewpoint: 5.0°C (41°F) [RH = 93%]
Pressure (altimeter): 30.09 inches Hg (1019.0 mb)
Winds: from the NNE (30 degrees) at 5 MPH (4 knots; 2.1 m/s)
Visibility: 0.99 miles (1.59 km)
Ceiling: at least 12,000 feet AGL
Clouds: sky clear below 12,000 feet AGL
Weather: BR  (mist)

METAR text: ZYTX 222200Z 04002MPS 1600 BR NSC 06/04 Q1019 BECMG TL2330 3000
Conditions at: ZYTX (SHENYANG/TAOKIAN, CN) observed 2200 UTC 22 October 2019
Temperature: 6.0°C (43°F)
Dewpoint: 4.0°C (39°F) [RH = 87%]
Pressure (altimeter): 30.09 inches Hg (1019.0 mb)
Winds: from the NE (40 degrees) at 5 MPH (4 knots; 2.1 m/s)
Visibility: 0.99 miles (1.59 km)
Ceiling: at least 12,000 feet AGL
Clouds: sky clear below 12,000 feet AGL
Weather: BR  (mist)

METAR text: ZYTX 222130Z 05002MPS 2000 BR NSC 07/06 Q1019 NOSIG
Conditions at: ZYTX (SHENYANG/TAOKIAN, CN) observed 2130 UTC 22 October 2019
Temperature: 7.0°C (45°F)
Dewpoint: 6.0°C (43°F) [RH = 93%]
Pressure (altimeter): 30.09 inches Hg (1019.0 mb)
Winds: from the NE (50 degrees) at 5 MPH (4 knots; 2.1 m/s)
Visibility: 1.24 miles (2.00 km)
Ceiling: at least 12,000 feet AGL
Clouds: sky clear below 12,000 feet AGL
Weather: BR  (mist)

METAR text: ZYTX 222100Z 04002MPS 360V070 2000 BR NSC 07/06 Q1019 BECMG TL2230 2500
Conditions at: ZYTX (SHENYANG/TAOKIAN, CN) observed 2100 UTC 22 October 2019
Temperature: 7.0°C (45°F)
Dewpoint: 6.0°C (43°F) [RH = 93%]
Pressure (altimeter): 30.09 inches Hg (1019.0 mb)
Winds: from the NE (40 degrees) at 5 MPH (4 knots; 2.1 m/s)
Visibility: 1.24 miles (2.00 km)
Ceiling: at least 12,000 feet AGL
Clouds: sky clear below 12,000 feet AGL
Weather: BR  (mist)

METAR text: ZYTX 222030Z 06003MPS 1600 BR NSC 06/05 Q1019 NOSIG
Conditions at: ZYTX (SHENYANG/TAOKIAN, CN) observed 2030 UTC 22 October 2019
Temperature: 6.0°C (43°F)
Dewpoint: 5.0°C (41°F) [RH = 93%]
Pressure (altimeter): 30.09 inches Hg (1019.0 mb)
Winds: from the ENE (60 degrees) at 7 MPH (6 knots; 3.1 m/s)
Visibility: 0.99 miles (1.59 km)
Ceiling: at least 12,000 feet AGL
Clouds: sky clear below 12,000 feet AGL
Weather: BR  (mist)

METAR text: ZYTX 222000Z 06003MPS 1600 BR NSC 07/06 Q1019 BECMG TL2100 1400
Conditions at: ZYTX (SHENYANG/TAOKIAN, CN) observed 2000 UTC 22 October 2019
Temperature: 7.0°C (45°F)
Dewpoint: 6.0°C (43°F) [RH = 93%]
Pressure (altimeter): 30.09 inches Hg (1019.0 mb)
Winds: from the ENE (60 degrees) at 7 MPH (6 knots; 3.1 m/s)
Visibility: 0.99 miles (1.59 km)
Ceiling: at least 12,000 feet AGL
Clouds: sky clear below 12,000 feet AGL
Weather: BR  (mist)

METAR text: ZYTX 221930Z VRB01MPS 1400 R24/1700U BR NSC 06/05 Q1018 NOSIG
Conditions at: ZYTX (SHENYANG/TAOKIAN, CN) observed 1930 UTC 22 October 2019
Temperature: 6.0°C (43°F)
Dewpoint: 5.0°C (41°F) [RH = 93%]
Pressure (altimeter): 30.06 inches Hg (1018.0 mb)
Winds: variable direction winds at 2 MPH (2 knots; 1.0 m/s)
Visibility: 0.87 miles (1.40 km)
Ceiling: at least 12,000 feet AGL
Clouds: sky clear below 12,000 feet AGL
Weather: BR  (mist)

METAR text: ZYTX 221900Z 09001MPS 1600 R24/0900V1400U BR NSC 06/05 Q1018 BECMG TL2000 1400
Conditions at: ZYTX (SHENYANG/TAOKIAN, CN) observed 1900 UTC 22 October 2019
Temperature: 6.0°C (43°F)
Dewpoint: 5.0°C (41°F) [RH = 93%]
Pressure (altimeter): 30.06 inches Hg (1018.0 mb)
Winds: from the E (90 degrees) at 2 MPH (2 knots; 1.0 m/s)
Visibility: 0.99 miles (1.59 km)
Ceiling: at least 12,000 feet AGL
Clouds: sky clear below 12,000 feet AGL
Weather: BR  (mist)

METAR text: ZYTX 221830Z 12001MPS 2000 BR NSC 08/06 Q1019 NOSIG
Conditions at: ZYTX (SHENYANG/TAOKIAN, CN) observed 1830 UTC 22 October 2019
Temperature: 8.0°C (46°F)
Dewpoint: 6.0°C (43°F) [RH = 87%]
Pressure (altimeter): 30.09 inches Hg (1019.0 mb)
Winds: from the ESE (120 degrees) at 2 MPH (2 knots; 1.0 m/s)
Visibility: 1.24 miles (2.00 km)
Ceiling: at least 12,000 feet AGL
Clouds: sky clear below 12,000 feet AGL
Weather: BR  (mist)

METAR text: ZYTX 221800Z 12002MPS 2500 BR NSC 09/08 Q1019 BECMG TL1900 3000
Conditions at: ZYTX (SHENYANG/TAOKIAN, CN) observed 1800 UTC 22 October 2019
Temperature: 9.0°C (48°F)
Dewpoint: 8.0°C (46°F) [RH = 93%]
Pressure (altimeter): 30.09 inches Hg (1019.0 mb)
Winds: from the ESE (120 degrees) at 5 MPH (4 knots; 2.1 m/s)
Visibility: 1.55 miles (2.49 km)
Ceiling: at least 12,000 feet AGL
Clouds: sky clear below 12,000 feet AGL
Weather: BR  (mist)

METAR text: ZYTX 221730Z 13001MPS 2000 BR NSC 06/05 Q1019 NOSIG
Conditions at: ZYTX (SHENYANG/TAOKIAN, CN) observed 1730 UTC 22 October 2019
Temperature: 6.0°C (43°F)
Dewpoint: 5.0°C (41°F) [RH = 93%]
Pressure (altimeter): 30.09 inches Hg (1019.0 mb)
Winds: from the SE (130 degrees) at 2 MPH (2 knots; 1.0 m/s)
Visibility: 1.24 miles (2.00 km)
Ceiling: at least 12,000 feet AGL
Clouds: sky clear below 12,000 feet AGL
Weather: BR  (mist)

METAR text: ZYTX 221700Z 15001MPS 2000 FU NSC 06/05 Q1019 BECMG TL1830 1400
Conditions at: ZYTX (SHENYANG/TAOKIAN, CN) observed 1700 UTC 22 October 2019
Temperature: 6.0°C (43°F)
Dewpoint: 5.0°C (41°F) [RH = 93%]
Pressure (altimeter): 30.09 inches Hg (1019.0 mb)
Winds: from the SSE (150 degrees) at 2 MPH (2 knots; 1.0 m/s)
Visibility: 1.24 miles (2.00 km)
Ceiling: at least 12,000 feet AGL
Clouds: sky clear below 12,000 feet AGL
Weather: FU  (smoke)

METAR text: ZYTX 221630Z 14002MPS 2500 FU NSC 06/05 Q1019 NOSIG
Conditions at: ZYTX (SHENYANG/TAOKIAN, CN) observed 1630 UTC 22 October 2019
Temperature: 6.0°C (43°F)
Dewpoint: 5.0°C (41°F) [RH = 93%]
Pressure (altimeter): 30.09 inches Hg (1019.0 mb)
Winds: from the SE (140 degrees) at 5 MPH (4 knots; 2.1 m/s)
Visibility: 1.55 miles (2.49 km)
Ceiling: at least 12,000 feet AGL
Clouds: sky clear below 12,000 feet AGL
Weather: FU  (smoke)

METAR text: ZYTX 221600Z 15001MPS 3000 FU NSC 06/05 Q1019 BECMG TL1700 2500
Conditions at: ZYTX (SHENYANG/TAOKIAN, CN) observed 1600 UTC 22 October 2019
Temperature: 6.0°C (43°F)
Dewpoint: 5.0°C (41°F) [RH = 93%]
Pressure (altimeter): 30.09 inches Hg (1019.0 mb)
Winds: from the SSE (150 degrees) at 2 MPH (2 knots; 1.0 m/s)
Visibility: 1.86 miles (2.99 km)
Ceiling: at least 12,000 feet AGL
Clouds: sky clear below 12,000 feet AGL
Weather: FU  (smoke)

METAR text: ZYTX 221530Z 15001MPS 3000 FU NSC 07/06 Q1019 NOSIG
Conditions at: ZYTX (SHENYANG/TAOKIAN, CN) observed 1530 UTC 22 October 2019
Temperature: 7.0°C (45°F)
Dewpoint: 6.0°C (43°F) [RH = 93%]
Pressure (altimeter): 30.09 inches Hg (1019.0 mb)
Winds: from the SSE (150 degrees) at 2 MPH (2 knots; 1.0 m/s)
Visibility: 1.86 miles (2.99 km)
Ceiling: at least 12,000 feet AGL
Clouds: sky clear below 12,000 feet AGL
Weather: FU  (smoke)

METAR text: ZYTX 221500Z 17001MPS 3000 FU NSC 08/06 Q1019 BECMG TL1630 2500
Conditions at: ZYTX (SHENYANG/TAOKIAN, CN) observed 1500 UTC 22 October 2019
Temperature: 8.0°C (46°F)
Dewpoint: 6.0°C (43°F) [RH = 87%]
Pressure (altimeter): 30.09 inches Hg (1019.0 mb)
Winds: from the S (170 degrees) at 2 MPH (2 knots; 1.0 m/s)
Visibility: 1.86 miles (2.99 km)
Ceiling: at least 12,000 feet AGL
Clouds: sky clear below 12,000 feet AGL
Weather: FU  (smoke)

METAR text: ZYTX 221430Z 16001MPS 3500 FU NSC 08/06 Q1019 NOSIG
Conditions at: ZYTX (SHENYANG/TAOKIAN, CN) observed 1430 UTC 22 October 2019
Temperature: 8.0°C (46°F)
Dewpoint: 6.0°C (43°F) [RH = 87%]
Pressure (altimeter): 30.09 inches Hg (1019.0 mb)
Winds: from the SSE (160 degrees) at 2 MPH (2 knots; 1.0 m/s)
Visibility: 2.17 miles (3.49 km)
Ceiling: at least 12,000 feet AGL
Clouds: sky clear below 12,000 feet AGL
Weather: FU  (smoke)

METAR text: ZYTX 221400Z VRB01MPS 3500 FU SCT040 08/06 Q1019 NOSIG
Conditions at: ZYTX (SHENYANG/TAOKIAN, CN) observed 1400 UTC 22 October 2019
Temperature: 8.0°C (46°F)
Dewpoint: 6.0°C (43°F) [RH = 87%]
Pressure (altimeter): 30.09 inches Hg (1019.0 mb)
Winds: variable direction winds at 2 MPH (2 knots; 1.0 m/s)
Visibility: 2.17 miles (3.49 km)
Ceiling: at least 12,000 feet AGL
Clouds: scattered clouds at 4000 feet AGL
Weather: FU  (smoke)

METAR text: ZYTX 221330Z VRB01MPS 3500 FU SCT040 08/07 Q1019 NOSIG
Conditions at: ZYTX (SHENYANG/TAOKIAN, CN) observed 1330 UTC 22 October 2019
Temperature: 8.0°C (46°F)
Dewpoint: 7.0°C (45°F) [RH = 93%]
Pressure (altimeter): 30.09 inches Hg (1019.0 mb)
Winds: variable direction winds at 2 MPH (2 knots; 1.0 m/s)
Visibility: 2.17 miles (3.49 km)
Ceiling: at least 12,000 feet AGL
Clouds: scattered clouds at 4000 feet AGL
Weather: FU  (smoke)

METAR text: ZYTX 221300Z 16001MPS 3500 FU SCT040 08/06 Q1019 NOSIG
Conditions at: ZYTX (SHENYANG/TAOKIAN, CN) observed 1300 UTC 22 October 2019
Temperature: 8.0°C (46°F)
Dewpoint: 6.0°C (43°F) [RH = 87%]
Pressure (altimeter): 30.09 inches Hg (1019.0 mb)
Winds: from the SSE (160 degrees) at 2 MPH (2 knots; 1.0 m/s)
Visibility: 2.17 miles (3.49 km)
Ceiling: at least 12,000 feet AGL
Clouds: scattered clouds at 4000 feet AGL
Weather: FU  (smoke)

METAR text: ZYTX 221230Z 17001MPS 3500 FU SCT040 09/07 Q1018 NOSIG
Conditions at: ZYTX (SHENYANG/TAOKIAN, CN) observed 1230 UTC 22 October 2019
Temperature: 9.0°C (48°F)
Dewpoint: 7.0°C (45°F) [RH = 87%]
Pressure (altimeter): 30.06 inches Hg (1018.0 mb)
Winds: from the S (170 degrees) at 2 MPH (2 knots; 1.0 m/s)
Visibility: 2.17 miles (3.49 km)
Ceiling: at least 12,000 feet AGL
Clouds: scattered clouds at 4000 feet AGL
Weather: FU  (smoke)

METAR text: ZYTX 221200Z VRB01MPS 3500 FU SCT040 11/08 Q1018 NOSIG
Conditions at: ZYTX (SHENYANG/TAOKIAN, CN) observed 1200 UTC 22 October 2019
Temperature: 11.0°C (52°F)
Dewpoint: 8.0°C (46°F) [RH = 82%]
Pressure (altimeter): 30.06 inches Hg (1018.0 mb)
Winds: variable direction winds at 2 MPH (2 knots; 1.0 m/s)
Visibility: 2.17 miles (3.49 km)
Ceiling: at least 12,000 feet AGL
Clouds: scattered clouds at 4000 feet AGL
Weather: FU  (smoke)

Forecast for: ZYTX (SHENYANG/TAOKIAN, CN)
Text: TAF ZYTX 231911Z 2400/2424 19003MPS 6000 NSC TX23/2406Z TN04/2422Z
Forecast period: 0000 to 1300 UTC 24 October 2019
Forecast type: FROM: standard forecast or significant change
Winds: from the S (190 degrees) at 7 MPH (6 knots; 3.1 m/s)
Visibility: 4 miles (6 km)
Ceiling: unknown
Clouds: missing
Weather: no significant weather forecast for this period
Text: BECMG 2413/2414 35005MPS -RA OVC030
Forecast period: 1300 UTC 24 October 2019 to 0000 UTC 25 October 2019
Forecast type: BECOMING: Conditions expected to become as follows by 1400 UTC 24 October 2019
Winds: from the N (350 degrees) at 12 MPH (10 knots; 5.1 m/s)
Visibility: 4 miles (6 km)
Ceiling: 3000 feet AGL
Clouds: overcast cloud deck at 3000 feet AGL
Weather: -RA  (light rain)